createdAt,value
2022-10-01T00:00:55.325Z,5.00
2022-10-01T00:03:28.195Z,4.90
2022-10-01T00:06:02.587Z,4.57
2022-10-01T00:08:31.043Z,5.47
2022-10-01T00:11:01.157Z,4.50
2022-10-01T00:13:30.465Z,4.70
2022-10-01T00:15:59.413Z,4.60
2022-10-01T00:18:27.750Z,5.23
2022-10-01T00:20:56.037Z,4.60
2022-10-01T00:23:24.412Z,4.63
2022-10-01T00:25:53.455Z,4.77
2022-10-01T00:28:23.215Z,4.73
2022-10-01T00:30:51.610Z,4.90
2022-10-01T00:33:19.917Z,5.00
2022-10-01T00:35:48.236Z,5.27
2022-10-01T00:38:16.479Z,4.83
2022-10-01T00:40:44.798Z,5.77
2022-10-01T00:43:24.237Z,5.10
2022-10-01T00:45:54.384Z,5.40
2022-10-01T00:48:22.863Z,5.53
2022-10-01T00:50:51.157Z,5.27
2022-10-01T00:53:19.426Z,5.40
2022-10-01T00:55:48.068Z,5.70
2022-10-01T00:58:16.480Z,6.00
2022-10-01T01:00:46.321Z,5.60
2022-10-01T01:03:14.646Z,5.90
2022-10-01T01:05:43.926Z,5.53
2022-10-01T01:08:12.184Z,5.77
2022-10-01T01:10:44.080Z,5.47
2022-10-01T01:13:13.983Z,5.97
2022-10-01T01:15:43.465Z,6.10
2022-10-01T01:18:15.083Z,5.90
2022-10-01T01:20:53.013Z,6.53
2022-10-01T01:23:48.065Z,6.03
2022-10-01T01:26:21.585Z,6.73
2022-10-01T01:28:51.767Z,6.57
2022-10-01T01:31:23.034Z,6.60
2022-10-01T01:33:51.542Z,7.10
2022-10-01T01:36:20.700Z,7.07
2022-10-01T01:38:51.725Z,6.10
2022-10-01T01:41:20.293Z,6.63
2022-10-01T01:43:49.144Z,6.93
2022-10-01T01:46:18.878Z,6.80
2022-10-01T01:48:49.487Z,6.30
2022-10-01T01:51:18.856Z,6.30
2022-10-01T01:53:47.274Z,5.80
2022-10-01T01:56:16.828Z,5.77
2022-10-01T01:58:45.146Z,5.70
2022-10-01T02:01:28.958Z,5.73
2022-10-01T02:03:59.078Z,6.00
2022-10-01T02:06:29.321Z,5.70
2022-10-01T02:08:58.521Z,5.00
2022-10-01T02:11:27.658Z,5.07
2022-10-01T02:14:00.921Z,4.30
2022-10-01T02:16:30.551Z,4.07
2022-10-01T02:19:01.126Z,4.40
2022-10-01T02:21:30.438Z,3.90
2022-10-01T02:24:00.457Z,4.13
2022-10-01T02:26:29.065Z,4.30
2022-10-01T02:28:57.653Z,4.27
2022-10-01T02:31:25.979Z,4.60
2022-10-01T02:33:54.786Z,5.03
2022-10-01T02:36:24.557Z,4.60
2022-10-01T02:38:52.852Z,4.70
2022-10-01T02:41:23.225Z,5.00
2022-10-01T02:43:53.677Z,4.67
2022-10-01T02:46:22.620Z,4.67
2022-10-01T02:48:51.288Z,4.67
2022-10-01T02:51:23.413Z,4.47
2022-10-01T02:53:53.989Z,4.50
2022-10-01T02:56:36.212Z,4.37
2022-10-01T02:59:04.506Z,4.53
2022-10-01T03:01:33.371Z,4.40
2022-10-01T03:04:02.182Z,4.53
2022-10-01T03:06:30.627Z,5.13
2022-10-01T03:09:00.969Z,4.70
2022-10-01T03:11:29.262Z,4.57
2022-10-01T03:13:58.273Z,4.43
2022-10-01T03:16:26.645Z,4.37
2022-10-01T03:18:55.006Z,4.10
2022-10-01T03:21:23.258Z,3.93
2022-10-01T03:23:51.779Z,3.33
2022-10-01T03:26:21.619Z,3.20
2022-10-01T03:28:50.172Z,3.20
2022-10-01T03:31:18.657Z,3.60
2022-10-01T03:33:47.100Z,3.50
2022-10-01T03:36:15.839Z,3.23
2022-10-01T03:38:44.173Z,3.50
2022-10-01T03:41:12.588Z,3.20
2022-10-01T03:43:42.340Z,3.50
2022-10-01T03:46:11.655Z,3.33
2022-10-01T03:48:40.128Z,3.20
2022-10-01T03:51:08.460Z,3.10
2022-10-01T03:53:37.116Z,2.80
2022-10-01T03:56:06.092Z,2.90
2022-10-01T03:58:34.462Z,2.90
2022-10-01T04:01:04.169Z,3.53
2022-10-01T04:03:32.513Z,2.87
2022-10-01T04:06:00.827Z,3.13
2022-10-01T04:08:29.429Z,2.73
2022-10-01T04:10:57.723Z,3.13
2022-10-01T04:13:26.109Z,3.50
2022-10-01T04:15:54.522Z,3.27
2022-10-01T04:18:24.286Z,3.10
2022-10-01T04:20:52.762Z,3.30
2022-10-01T04:23:22.485Z,2.73
2022-10-01T04:25:50.791Z,3.00
2022-10-01T04:28:19.383Z,2.97
2022-10-01T04:30:47.938Z,2.93
2022-10-01T04:33:16.796Z,3.20
2022-10-01T04:35:46.515Z,2.57
2022-10-01T04:38:15.334Z,2.43
2022-10-01T04:40:43.791Z,3.00
2022-10-01T04:43:12.515Z,3.23
2022-10-01T04:45:41.006Z,3.10
2022-10-01T04:48:09.328Z,3.07
2022-10-01T04:50:37.711Z,3.00
2022-10-01T04:53:07.314Z,2.80
2022-10-01T04:55:35.661Z,2.90
2022-10-01T04:58:03.978Z,3.13
2022-10-01T05:00:32.422Z,2.80
2022-10-01T05:03:00.793Z,2.80
2022-10-01T05:05:29.313Z,2.77
2022-10-01T05:07:57.918Z,3.17
2022-10-01T05:10:27.701Z,3.03
2022-10-01T05:12:57.596Z,3.77
2022-10-01T05:15:25.904Z,3.40
2022-10-01T05:17:54.462Z,3.17
2022-10-01T05:20:23.173Z,3.43
2022-10-01T05:22:51.542Z,4.17
2022-10-01T05:25:20.177Z,3.40
2022-10-01T05:27:49.905Z,3.60
2022-10-01T05:30:24.226Z,3.60
2022-10-01T05:32:56.504Z,3.60
2022-10-01T05:35:24.883Z,3.23
2022-10-01T05:37:56.985Z,3.50
2022-10-01T05:40:28.611Z,3.47
2022-10-01T05:42:58.677Z,3.30
2022-10-01T05:45:27.221Z,2.90
2022-10-01T05:47:58.982Z,3.50
2022-10-01T05:50:27.381Z,2.60
2022-10-01T05:52:55.965Z,3.00
2022-10-01T05:55:24.776Z,3.10
2022-10-01T05:57:56.390Z,3.10
2022-10-01T06:00:29.279Z,2.90
2022-10-01T06:02:58.400Z,2.70
2022-10-01T06:05:26.829Z,2.90
2022-10-01T06:07:55.151Z,2.90
2022-10-01T06:10:23.540Z,2.80
2022-10-01T06:12:51.924Z,2.97
2022-10-01T06:15:20.263Z,2.87
2022-10-01T06:17:50.329Z,2.77
2022-10-01T06:20:19.368Z,3.23
2022-10-01T06:22:54.196Z,3.00
2022-10-01T06:25:22.616Z,3.20
2022-10-01T06:27:53.525Z,2.93
2022-10-01T06:30:21.920Z,3.40
2022-10-01T06:32:51.768Z,2.90
2022-10-01T06:35:20.874Z,3.20
2022-10-01T06:37:49.414Z,2.97
2022-10-01T06:40:17.789Z,2.70
2022-10-01T06:42:48.906Z,3.27
2022-10-01T06:45:18.084Z,2.80
2022-10-01T06:47:46.510Z,3.27
2022-10-01T06:50:17.455Z,3.90
2022-10-01T06:52:51.813Z,3.27
2022-10-01T06:55:20.188Z,3.27
2022-10-01T06:57:50.303Z,3.20
2022-10-01T07:00:18.696Z,3.10
2022-10-01T07:02:47.049Z,3.27
2022-10-01T07:05:17.048Z,3.10
2022-10-01T07:07:45.577Z,3.60
2022-10-01T07:10:13.866Z,2.60
2022-10-01T07:12:42.216Z,2.90
2022-10-01T07:15:11.107Z,3.00
2022-10-01T07:17:44.702Z,3.27
2022-10-01T07:20:13.049Z,3.30
2022-10-01T07:22:42.901Z,2.77
2022-10-01T07:25:11.314Z,2.63
2022-10-01T07:27:39.773Z,3.13
2022-10-01T07:30:08.743Z,2.87
2022-10-01T07:32:37.401Z,2.47
2022-10-01T07:35:06.252Z,2.67
2022-10-01T07:37:34.670Z,2.53
2022-10-01T07:40:07.508Z,3.07
2022-10-01T07:42:36.477Z,2.63
2022-10-01T07:45:07.320Z,2.93
2022-10-01T07:47:35.655Z,2.70
2022-10-01T07:50:04.293Z,1.90
2022-10-01T07:52:33.029Z,1.80
2022-10-01T07:55:01.317Z,2.30
2022-10-01T07:57:31.561Z,2.20
2022-10-01T08:00:00.465Z,2.30
2022-10-01T08:02:28.898Z,2.63
2022-10-01T08:05:15.013Z,2.33
2022-10-01T08:07:43.389Z,2.27
2022-10-01T08:10:11.981Z,2.50
2022-10-01T08:12:42.803Z,2.43
2022-10-01T08:15:11.697Z,2.67
2022-10-01T08:17:40.299Z,2.60
2022-10-01T08:20:09.290Z,2.03
2022-10-01T08:22:41.844Z,1.83
2022-10-01T08:25:10.706Z,2.23
2022-10-01T08:27:39.121Z,2.97
2022-10-01T08:30:09.863Z,2.93
2022-10-01T08:32:38.246Z,2.17
2022-10-01T08:35:07.190Z,2.57
2022-10-01T08:37:35.614Z,2.57
2022-10-01T08:40:04.094Z,2.67
2022-10-01T08:42:43.851Z,2.13
2022-10-01T08:45:15.082Z,2.37
2022-10-01T08:47:44.092Z,2.77
2022-10-01T08:50:14.522Z,2.80
2022-10-01T08:52:43.458Z,2.97
2022-10-01T08:55:12.525Z,2.53
2022-10-01T08:57:42.012Z,2.43
2022-10-01T09:00:12.459Z,2.43
2022-10-01T09:02:42.975Z,2.63
2022-10-01T09:05:14.718Z,2.83
2022-10-01T09:07:51.526Z,2.90
2022-10-01T09:10:25.601Z,4.23
2022-10-01T09:12:55.861Z,2.53
2022-10-01T09:15:26.702Z,2.30
2022-10-01T09:17:59.320Z,2.20
2022-10-01T09:20:28.376Z,2.20
2022-10-01T09:23:00.953Z,3.13
2022-10-01T09:25:29.511Z,2.40
2022-10-01T09:27:59.327Z,2.70
2022-10-01T09:30:29.155Z,2.60
2022-10-01T09:32:59.835Z,2.43
2022-10-01T09:35:32.782Z,2.50
2022-10-01T09:38:02.392Z,2.33
2022-10-01T09:40:35.543Z,2.60
2022-10-01T09:43:03.964Z,2.17
2022-10-01T09:45:32.378Z,3.03
2022-10-01T09:48:04.652Z,2.30
2022-10-01T09:50:34.899Z,2.60
2022-10-01T09:53:03.233Z,2.37
2022-10-01T09:55:32.793Z,2.27
2022-10-01T09:58:02.133Z,2.40
2022-10-01T10:00:30.449Z,2.30
2022-10-01T10:02:58.971Z,2.23
2022-10-01T10:05:29.018Z,2.40
2022-10-01T10:07:59.850Z,2.10
2022-10-01T10:10:29.469Z,2.87
2022-10-01T10:12:59.023Z,2.70
2022-10-01T10:15:27.481Z,2.77
2022-10-01T10:17:58.942Z,2.50
2022-10-01T10:20:30.371Z,2.40
2022-10-01T10:23:08.233Z,2.40
2022-10-01T10:25:36.717Z,2.30
2022-10-01T10:28:05.635Z,2.27
2022-10-01T10:30:34.530Z,2.40
2022-10-01T10:33:07.693Z,2.43
2022-10-01T10:35:37.505Z,2.60
2022-10-01T10:38:05.970Z,2.63
2022-10-01T10:40:36.487Z,2.47
2022-10-01T10:43:04.856Z,2.13
2022-10-01T10:45:34.572Z,2.00
2022-10-01T10:48:04.025Z,2.10
2022-10-01T10:50:33.060Z,2.03
2022-10-01T10:53:06.347Z,2.43
2022-10-01T10:55:35.248Z,3.23
2022-10-01T10:58:11.627Z,2.00
2022-10-01T11:00:45.639Z,2.47
2022-10-01T11:03:14.283Z,2.20
2022-10-01T11:05:43.100Z,3.13
2022-10-01T11:08:17.648Z,2.40
2022-10-01T11:10:48.098Z,2.67
2022-10-01T11:13:32.671Z,2.40
2022-10-01T11:16:08.904Z,1.90
2022-10-01T11:18:44.871Z,2.00
2022-10-01T11:21:14.898Z,1.90
2022-10-01T11:23:52.455Z,2.10
2022-10-01T11:26:22.270Z,2.80
2022-10-01T11:28:53.789Z,2.20
2022-10-01T11:31:24.918Z,2.60
2022-10-01T11:33:58.545Z,2.90
2022-10-01T11:36:28.417Z,2.80
2022-10-01T11:38:59.745Z,2.60
2022-10-01T11:41:31.109Z,2.17
2022-10-01T11:44:00.082Z,2.37
2022-10-01T11:46:37.940Z,2.50
2022-10-01T11:49:12.096Z,2.67
2022-10-01T11:51:41.471Z,2.40
2022-10-01T11:54:12.134Z,2.50
2022-10-01T11:56:59.119Z,2.07
2022-10-01T11:59:29.821Z,2.70
2022-10-01T12:01:59.490Z,2.70
2022-10-01T12:04:32.477Z,2.27
2022-10-01T12:07:01.397Z,2.23
2022-10-01T12:09:33.829Z,2.20
2022-10-01T12:12:02.897Z,2.50
2022-10-01T12:14:37.486Z,2.40
2022-10-01T12:17:08.015Z,2.43
2022-10-01T12:19:36.584Z,2.27
2022-10-01T12:22:05.695Z,2.23
2022-10-01T12:24:36.134Z,2.50
2022-10-01T12:27:07.832Z,2.40
2022-10-01T12:29:39.121Z,2.23
2022-10-01T12:32:10.090Z,2.10
2022-10-01T12:34:40.707Z,2.30
2022-10-01T12:37:12.778Z,2.33
2022-10-01T12:39:45.686Z,2.30
2022-10-01T12:42:20.551Z,2.07
2022-10-01T12:44:54.268Z,2.13
2022-10-01T12:47:28.475Z,2.20
2022-10-01T12:49:59.340Z,2.17
2022-10-01T12:52:33.730Z,2.80
2022-10-01T12:55:17.138Z,2.57
2022-10-01T12:57:49.186Z,2.13
2022-10-01T13:00:18.813Z,2.47
2022-10-01T13:03:02.039Z,2.30
2022-10-01T13:05:32.465Z,2.23
2022-10-01T13:08:04.462Z,2.53
2022-10-01T13:10:40.369Z,2.67
2022-10-01T13:13:12.916Z,3.13
2022-10-01T13:15:42.031Z,3.23
2022-10-01T13:18:12.815Z,2.73
2022-10-01T13:20:42.229Z,2.13
2022-10-01T13:23:11.095Z,2.80
2022-10-01T13:25:40.741Z,3.00
2022-10-01T13:28:13.222Z,2.53
2022-10-01T13:30:46.774Z,3.10
2022-10-01T13:33:26.363Z,2.37
2022-10-01T13:35:55.361Z,2.67
2022-10-01T13:38:31.436Z,2.30
2022-10-01T13:41:00.220Z,2.70
2022-10-01T13:43:30.054Z,2.63
2022-10-01T13:45:58.567Z,2.53
2022-10-01T13:48:29.567Z,2.37
2022-10-01T13:50:59.211Z,2.77
2022-10-01T13:53:29.923Z,2.50
2022-10-01T13:55:58.792Z,2.53
2022-10-01T13:58:34.992Z,2.20
2022-10-01T14:01:03.726Z,2.67
2022-10-01T14:03:35.078Z,2.30
2022-10-01T14:06:03.846Z,2.43
2022-10-01T14:08:33.557Z,2.80
2022-10-01T14:11:20.469Z,2.50
2022-10-01T14:14:08.122Z,2.63
2022-10-01T14:16:38.120Z,3.00
2022-10-01T14:19:06.394Z,2.53
2022-10-01T14:21:37.634Z,2.47
2022-10-01T14:24:08.530Z,2.30
2022-10-01T14:26:38.074Z,2.10
2022-10-01T14:29:11.593Z,2.23
2022-10-01T14:31:44.795Z,2.73
2022-10-01T14:34:39.691Z,1.70
2022-10-01T14:37:08.219Z,2.30
2022-10-01T14:39:36.653Z,2.30
2022-10-01T14:42:16.532Z,1.90
2022-10-01T14:44:47.160Z,2.70
2022-10-01T14:47:16.516Z,1.90
2022-10-01T14:49:45.091Z,2.47
2022-10-01T14:52:18.901Z,2.03
2022-10-01T14:54:47.600Z,2.23
2022-10-01T14:57:17.981Z,1.97
2022-10-01T14:59:47.939Z,1.70
2022-10-01T15:02:19.979Z,2.10
2022-10-01T15:04:51.307Z,2.63
2022-10-01T15:07:19.904Z,2.23
2022-10-01T15:09:48.584Z,2.53
2022-10-01T15:12:17.545Z,1.93
2022-10-01T15:14:46.332Z,2.47
2022-10-01T15:17:18.141Z,2.33
2022-10-01T15:19:47.738Z,2.60
2022-10-01T15:22:16.805Z,2.40
2022-10-01T15:24:46.967Z,2.23
2022-10-01T15:27:15.666Z,2.07
2022-10-01T15:29:45.583Z,1.90
2022-10-01T15:32:17.190Z,1.80
2022-10-01T15:34:49.828Z,2.10
2022-10-01T15:37:19.196Z,1.97
2022-10-01T15:39:49.544Z,2.30
2022-10-01T15:42:22.205Z,2.00
2022-10-01T15:44:53.347Z,2.27
2022-10-01T15:47:31.291Z,2.53
2022-10-01T15:50:04.680Z,2.60
2022-10-01T15:52:53.299Z,2.70
2022-10-01T15:55:27.624Z,3.00
2022-10-01T15:58:05.155Z,2.90
2022-10-01T16:00:40.693Z,2.73
2022-10-01T16:03:15.909Z,2.60
2022-10-01T16:05:47.283Z,2.70
2022-10-01T16:08:21.171Z,2.70
2022-10-01T16:10:51.548Z,2.23
2022-10-01T16:13:32.232Z,2.57
2022-10-01T16:16:31.126Z,1.87
2022-10-01T16:19:04.163Z,2.50
2022-10-01T16:21:37.213Z,2.80
2022-10-01T16:24:08.115Z,2.33
2022-10-01T16:26:39.483Z,2.73
2022-10-01T16:29:23.908Z,2.40
2022-10-01T16:31:52.947Z,2.23
2022-10-01T16:34:25.008Z,2.30
2022-10-01T16:36:54.343Z,2.30
2022-10-01T16:39:24.619Z,2.50
2022-10-01T16:42:19.012Z,2.43
2022-10-01T16:44:44.670Z,2.50
2022-10-01T16:47:13.530Z,2.63
2022-10-01T16:49:43.478Z,2.50
2022-10-01T16:52:14.060Z,2.80
2022-10-01T16:54:45.235Z,2.33
2022-10-01T16:57:14.029Z,2.30
2022-10-01T16:59:42.480Z,2.57
2022-10-01T17:02:12.065Z,2.60
2022-10-01T17:04:40.673Z,2.10
2022-10-01T17:07:10.393Z,2.50
2022-10-01T17:09:38.758Z,2.43
2022-10-01T17:12:07.150Z,1.80
2022-10-01T17:14:35.697Z,2.73
2022-10-01T17:17:04.068Z,2.40
2022-10-01T17:19:32.704Z,2.37
2022-10-01T17:22:01.038Z,2.17
2022-10-01T17:24:31.557Z,1.83
2022-10-01T17:26:59.809Z,2.00
2022-10-01T17:29:28.110Z,2.50
2022-10-01T17:31:56.556Z,1.73
2022-10-01T17:34:25.148Z,1.60
2022-10-01T17:36:54.178Z,2.33
2022-10-01T17:39:22.540Z,2.73
2022-10-01T17:41:55.999Z,1.80
2022-10-01T17:44:24.777Z,2.50
2022-10-01T17:46:53.372Z,2.37
2022-10-01T17:49:21.942Z,1.90
2022-10-01T17:51:50.266Z,2.80
2022-10-01T17:54:19.861Z,2.53
2022-10-01T17:56:50.674Z,2.07
2022-10-01T17:59:20.911Z,2.67
2022-10-01T18:01:50.978Z,2.40
2022-10-01T18:04:19.393Z,2.13
2022-10-01T18:06:49.174Z,2.47
2022-10-01T18:09:17.682Z,2.47
2022-10-01T18:11:46.066Z,2.33
2022-10-01T18:14:14.485Z,2.27
2022-10-01T18:16:44.400Z,2.67
2022-10-01T18:22:01.631Z,2.80
2022-10-01T18:24:30.144Z,3.03
2022-10-01T18:26:58.597Z,2.93
2022-10-01T18:29:27.618Z,2.07
2022-10-01T18:32:00.874Z,3.00
2022-10-01T18:34:30.857Z,2.60
2022-10-01T18:37:00.203Z,2.73
2022-10-01T18:39:29.828Z,2.57
2022-10-01T18:41:58.559Z,3.17
2022-10-01T18:44:27.410Z,2.33
2022-10-01T18:47:03.846Z,2.70
2022-10-01T18:50:00.488Z,3.17
2022-10-01T18:52:29.899Z,2.73
2022-10-01T18:55:05.135Z,2.87
2022-10-01T18:57:38.428Z,2.53
2022-10-01T19:00:10.657Z,2.77
2022-10-01T19:02:50.589Z,3.17
2022-10-01T19:05:34.028Z,2.90
2022-10-01T19:08:04.480Z,3.50
2022-10-01T19:10:34.620Z,3.07
2022-10-01T19:13:04.863Z,3.53
2022-10-01T19:15:37.957Z,3.63
2022-10-01T19:18:11.206Z,3.90
2022-10-01T19:20:46.566Z,3.63
2022-10-01T19:23:23.054Z,3.23
2022-10-01T19:25:52.295Z,3.20
2022-10-01T19:28:24.913Z,3.40
2022-10-01T19:30:55.767Z,3.70
2022-10-01T19:33:25.731Z,3.73
2022-10-01T19:35:56.275Z,3.87
2022-10-01T19:38:26.069Z,3.13
2022-10-01T19:40:55.342Z,3.23
2022-10-01T19:43:24.481Z,3.00
2022-10-01T19:45:53.870Z,3.17
2022-10-01T19:48:25.657Z,3.17
2022-10-01T19:50:55.601Z,2.83
2022-10-01T19:53:25.474Z,3.37
2022-10-01T19:55:54.254Z,3.43
2022-10-01T19:58:23.837Z,3.27
2022-10-01T20:00:53.685Z,2.93
2022-10-01T20:03:25.924Z,4.10
2022-10-01T20:05:55.602Z,3.53
2022-10-01T20:08:28.975Z,3.50
2022-10-01T20:10:59.077Z,2.83
2022-10-01T20:13:29.886Z,3.53
2022-10-01T20:16:00.850Z,3.20
2022-10-01T20:18:32.916Z,3.17
2022-10-01T20:21:09.075Z,3.57
2022-10-01T20:23:40.772Z,3.30
2022-10-01T20:26:12.436Z,3.97
2022-10-01T20:28:42.010Z,3.47
2022-10-01T20:31:14.573Z,4.60
2022-10-01T20:33:45.320Z,4.17
2022-10-01T20:36:15.304Z,4.10
2022-10-01T20:38:47.960Z,4.33
2022-10-01T20:41:17.128Z,4.13
2022-10-01T20:43:49.343Z,4.90
2022-10-01T20:46:20.188Z,3.90
2022-10-01T20:48:55.896Z,4.23
2022-10-01T20:51:26.762Z,4.67
2022-10-01T20:53:59.093Z,4.30
2022-10-01T20:56:30.268Z,4.10
2022-10-01T20:59:02.837Z,3.60
2022-10-01T21:01:35.313Z,4.37
2022-10-01T21:04:05.838Z,4.17
2022-10-01T21:06:35.556Z,4.03
2022-10-01T21:09:04.869Z,4.13
2022-10-01T21:11:34.530Z,4.30
2022-10-01T21:14:06.584Z,4.30
2022-10-01T21:16:43.152Z,4.03
2022-10-01T21:19:17.877Z,4.23
2022-10-01T21:21:47.058Z,3.83
2022-10-01T21:24:23.505Z,4.03
2022-10-01T21:26:54.123Z,3.27
2022-10-01T21:29:30.275Z,3.57
2022-10-01T21:32:02.906Z,3.30
2022-10-01T21:34:34.837Z,3.17
2022-10-01T21:37:05.556Z,2.50
2022-10-01T21:39:34.610Z,1.60
2022-10-01T21:42:07.034Z,2.10
2022-10-01T21:44:50.271Z,2.03
2022-10-01T21:47:20.277Z,1.63
2022-10-01T21:49:53.261Z,1.93
2022-10-01T21:52:25.658Z,1.87
2022-10-01T21:55:01.092Z,1.97
2022-10-01T21:57:43.318Z,2.40
2022-10-01T22:00:19.514Z,2.00
2022-10-01T22:03:02.810Z,1.40
2022-10-01T22:05:34.552Z,1.87
2022-10-01T22:08:15.489Z,1.60
2022-10-01T22:10:44.389Z,1.33
2022-10-01T22:13:14.829Z,1.27
2022-10-01T22:15:44.022Z,1.73
2022-10-01T22:18:13.188Z,1.30
2022-10-01T22:20:43.758Z,1.53
2022-10-01T22:23:12.645Z,1.80
2022-10-01T22:25:43.767Z,1.50
2022-10-01T22:28:16.222Z,1.43
2022-10-01T22:30:44.645Z,1.80
2022-10-01T22:33:14.724Z,1.60
2022-10-01T22:35:45.199Z,1.57
2022-10-01T22:38:14.422Z,1.60
2022-10-01T22:40:44.857Z,2.83
2022-10-01T22:43:15.119Z,2.67
2022-10-01T22:45:47.694Z,2.23
2022-10-01T22:48:22.554Z,2.40
2022-10-01T22:50:55.976Z,2.63
2022-10-01T22:53:31.185Z,2.60
2022-10-01T22:56:00.120Z,2.63
2022-10-01T22:58:32.731Z,2.37
2022-10-01T23:01:03.663Z,2.70
2022-10-01T23:03:37.288Z,2.60
2022-10-01T23:06:08.616Z,3.20
2022-10-01T23:08:41.216Z,2.57
2022-10-01T23:11:13.353Z,3.20
2022-10-01T23:13:46.168Z,2.40
2022-10-01T23:16:17.861Z,3.37
2022-10-01T23:18:48.589Z,2.80
2022-10-01T23:21:21.465Z,3.07
2022-10-01T23:23:50.707Z,3.10
2022-10-01T23:26:23.906Z,3.50
2022-10-01T23:28:57.671Z,2.43
2022-10-01T23:31:28.094Z,3.47
2022-10-01T23:33:59.597Z,2.80
2022-10-01T23:36:32.799Z,3.07
2022-10-01T23:39:11.248Z,3.10
2022-10-01T23:41:41.429Z,3.27
2022-10-01T23:44:13.406Z,2.90
2022-10-01T23:46:41.859Z,3.90
2022-10-01T23:49:12.310Z,3.57
2022-10-01T23:51:46.400Z,3.17
2022-10-01T23:54:16.581Z,3.43
2022-10-01T23:56:48.910Z,3.50
2022-10-01T23:59:18.467Z,3.30
